Etusivu
METAR-TAF:

METAR-TAF

Lentoasemat :

Rønne, Tanska

Leveyspiiri: 55-04N, Pituuspiiri: 014-45E, korkeus merenpinnasta: 16 m

Tämänhetkinen sää

Tämä raportti tehtiin 28 minuuttia sitten, kello 13.20 UTC
Tuuli 11 kn kaakosta
Lämpötila 15°C
Kosteus 51%
Ilmanpaine 1029 hPa
Näkyvyys 10 km tai enemmän

METAR: EKRN 201320Z AUTO 14011KT 9999NDV NCD 15/05 Q1029

Aika: 15:48 (13:48 UTC)

Sääennuste

Tämä raportti tehtiin 2 tuntia ja 26 minuuttia sitten, kello 11.22 UTC
Ennuste voimassa 20. päivästä klo 12 UTC - 20. päivään klo 21 UTC
Tuuli 7 kn etelästä/kaakosta
Näkyvyys 10 km tai enemmän
ei pilviä alle 1500 m:ssä eikä cumulonimbus-pilviä
Tulossa
20. päivästä klo 16 UTC - 20. päivään klo 18 UTC
Tuuli 6 kn idästä/koillisesta

TAF: EKRN 201122Z 2012/2021 15007KT CAVOK BECMG 2016/2018 07006KT

Säähavainnot ja -ennusteet yli 4000 lentoasemalta (METAR- ja TAF-raportit).

Käytössä olevat sääasemat on merkitty karttaan keltaisilla ja punaisilla pisteillä.

Aseta hiiri pisteen päälle nähdäksesi sääaseman nimen.

Klikkaa sitten nähdäksesi säähavainnot ja -ennusteet.

Kartan vaihtaminen: klikkaa mustalla rastilla varustettuja vihreitä pisteitä, niin voit zoomata sisään; viivalla varustettua vihreää pistettä, niin voit zoomata ulos tai vihreitä nuolia, niin pääset viereisille kartoille.


METAR-TAF: